sensor_id;sensor_type;location;lat;lon;timestamp;P1;durP1;ratioP1;P2;durP2;ratioP2
23472;SDS011;11909;52.516;13.564;2022-08-01T00:02:11;6.85;;;2.95;;
23472;SDS011;11909;52.516;13.564;2022-08-01T00:04:37;11.50;;;3.00;;
23472;SDS011;11909;52.516;13.564;2022-08-01T00:07:04;5.28;;;3.05;;
23472;SDS011;11909;52.516;13.564;2022-08-01T00:09:31;4.80;;;3.20;;
23472;SDS011;11909;52.516;13.564;2022-08-01T00:11:58;3.10;;;2.80;;
23472;SDS011;11909;52.516;13.564;2022-08-01T00:14:25;2.67;;;2.47;;
23472;SDS011;11909;52.516;13.564;2022-08-01T00:16:51;3.92;;;2.90;;
23472;SDS011;11909;52.516;13.564;2022-08-01T00:19:18;4.45;;;3.10;;
23472;SDS011;11909;52.516;13.564;2022-08-01T00:21:44;5.00;;;3.00;;
23472;SDS011;11909;52.516;13.564;2022-08-01T00:24:11;4.88;;;2.95;;
23472;SDS011;11909;52.516;13.564;2022-08-01T00:26:37;4.18;;;2.70;;
23472;SDS011;11909;52.516;13.564;2022-08-01T00:29:05;4.38;;;3.03;;
23472;SDS011;11909;52.516;13.564;2022-08-01T00:31:31;5.15;;;2.85;;
23472;SDS011;11909;52.516;13.564;2022-08-01T00:33:58;7.30;;;3.15;;
23472;SDS011;11909;52.516;13.564;2022-08-01T00:36:24;4.75;;;3.08;;
23472;SDS011;11909;52.516;13.564;2022-08-01T00:38:51;4.22;;;3.00;;
23472;SDS011;11909;52.516;13.564;2022-08-01T00:41:17;6.35;;;3.10;;
23472;SDS011;11909;52.516;13.564;2022-08-01T00:43:44;3.05;;;2.67;;
23472;SDS011;11909;52.516;13.564;2022-08-01T00:46:11;4.32;;;3.10;;
23472;SDS011;11909;52.516;13.564;2022-08-01T00:48:38;4.60;;;2.83;;
23472;SDS011;11909;52.516;13.564;2022-08-01T00:51:05;3.90;;;2.58;;
23472;SDS011;11909;52.516;13.564;2022-08-01T00:53:31;7.35;;;3.80;;
23472;SDS011;11909;52.516;13.564;2022-08-01T00:55:58;3.90;;;3.08;;
23472;SDS011;11909;52.516;13.564;2022-08-01T00:58:26;5.80;;;2.90;;
23472;SDS011;11909;52.516;13.564;2022-08-01T01:00:54;5.32;;;3.20;;
23472;SDS011;11909;52.516;13.564;2022-08-01T01:03:22;3.42;;;2.95;;
23472;SDS011;11909;52.516;13.564;2022-08-01T01:08:39;3.17;;;2.88;;
23472;SDS011;11909;52.516;13.564;2022-08-01T01:11:13;7.55;;;3.35;;
23472;SDS011;11909;52.516;13.564;2022-08-01T01:13:49;3.35;;;2.70;;
23472;SDS011;11909;52.516;13.564;2022-08-01T01:16:19;3.92;;;3.08;;
23472;SDS011;11909;52.516;13.564;2022-08-01T01:18:51;3.80;;;3.08;;
23472;SDS011;11909;52.516;13.564;2022-08-01T01:21:37;6.05;;;2.85;;
23472;SDS011;11909;52.516;13.564;2022-08-01T01:24:16;6.25;;;3.17;;
23472;SDS011;11909;52.516;13.564;2022-08-01T01:26:49;6.07;;;3.28;;
23472;SDS011;11909;52.516;13.564;2022-08-01T01:29:22;4.00;;;3.13;;
23472;SDS011;11909;52.516;13.564;2022-08-01T01:31:52;3.50;;;3.20;;
23472;SDS011;11909;52.516;13.564;2022-08-01T01:34:23;5.13;;;2.83;;
23472;SDS011;11909;52.516;13.564;2022-08-01T01:36:51;4.80;;;3.15;;
23472;SDS011;11909;52.516;13.564;2022-08-01T01:39:20;3.40;;;3.00;;
23472;SDS011;11909;52.516;13.564;2022-08-01T01:41:48;4.70;;;3.20;;
23472;SDS011;11909;52.516;13.564;2022-08-01T01:44:15;4.13;;;3.03;;
23472;SDS011;11909;52.516;13.564;2022-08-01T01:46:45;4.20;;;3.00;;
23472;SDS011;11909;52.516;13.564;2022-08-01T01:49:13;4.70;;;3.00;;
23472;SDS011;11909;52.516;13.564;2022-08-01T01:51:40;3.65;;;3.03;;
23472;SDS011;11909;52.516;13.564;2022-08-01T01:54:08;4.28;;;2.83;;
23472;SDS011;11909;52.516;13.564;2022-08-01T01:56:35;2.92;;;2.50;;
23472;SDS011;11909;52.516;13.564;2022-08-01T01:59:13;4.75;;;3.47;;
23472;SDS011;11909;52.516;13.564;2022-08-01T02:01:45;4.57;;;3.20;;
23472;SDS011;11909;52.516;13.564;2022-08-01T02:04:14;3.45;;;3.15;;
23472;SDS011;11909;52.516;13.564;2022-08-01T02:06:41;3.90;;;3.50;;
23472;SDS011;11909;52.516;13.564;2022-08-01T02:09:09;3.25;;;2.95;;
23472;SDS011;11909;52.516;13.564;2022-08-01T02:11:36;4.05;;;3.25;;
23472;SDS011;11909;52.516;13.564;2022-08-01T02:14:06;4.60;;;3.10;;
23472;SDS011;11909;52.516;13.564;2022-08-01T02:16:35;4.35;;;3.38;;
23472;SDS011;11909;52.516;13.564;2022-08-01T02:19:04;3.20;;;2.90;;
23472;SDS011;11909;52.516;13.564;2022-08-01T02:21:32;6.30;;;3.40;;
23472;SDS011;11909;52.516;13.564;2022-08-01T02:24:06;3.85;;;3.38;;
23472;SDS011;11909;52.516;13.564;2022-08-01T02:26:39;4.03;;;3.20;;
23472;SDS011;11909;52.516;13.564;2022-08-01T02:29:10;3.53;;;2.92;;
23472;SDS011;11909;52.516;13.564;2022-08-01T02:31:43;3.33;;;3.00;;
23472;SDS011;11909;52.516;13.564;2022-08-01T02:34:15;4.53;;;3.83;;
23472;SDS011;11909;52.516;13.564;2022-08-01T02:36:45;5.85;;;3.58;;
23472;SDS011;11909;52.516;13.564;2022-08-01T02:39:15;4.70;;;3.42;;
23472;SDS011;11909;52.516;13.564;2022-08-01T02:44:14;5.55;;;3.40;;
23472;SDS011;11909;52.516;13.564;2022-08-01T02:46:48;3.58;;;3.28;;
23472;SDS011;11909;52.516;13.564;2022-08-01T02:49:17;5.25;;;3.42;;
23472;SDS011;11909;52.516;13.564;2022-08-01T02:51:46;5.60;;;3.53;;
23472;SDS011;11909;52.516;13.564;2022-08-01T02:54:15;5.25;;;3.28;;
23472;SDS011;11909;52.516;13.564;2022-08-01T02:56:44;4.00;;;3.50;;
23472;SDS011;11909;52.516;13.564;2022-08-01T02:59:15;4.25;;;3.38;;
23472;SDS011;11909;52.516;13.564;2022-08-01T03:01:44;7.45;;;3.20;;
23472;SDS011;11909;52.516;13.564;2022-08-01T03:04:12;5.50;;;3.45;;
23472;SDS011;11909;52.516;13.564;2022-08-01T03:06:41;8.60;;;3.63;;
23472;SDS011;11909;52.516;13.564;2022-08-01T03:09:08;3.58;;;3.28;;
23472;SDS011;11909;52.516;13.564;2022-08-01T03:11:36;5.20;;;3.45;;
23472;SDS011;11909;52.516;13.564;2022-08-01T03:14:06;6.55;;;3.50;;
23472;SDS011;11909;52.516;13.564;2022-08-01T03:16:35;3.45;;;3.10;;
23472;SDS011;11909;52.516;13.564;2022-08-01T03:19:04;3.33;;;3.03;;
23472;SDS011;11909;52.516;13.564;2022-08-01T03:21:33;3.42;;;3.13;;
23472;SDS011;11909;52.516;13.564;2022-08-01T03:24:03;3.58;;;3.22;;
23472;SDS011;11909;52.516;13.564;2022-08-01T03:26:33;4.90;;;3.20;;
23472;SDS011;11909;52.516;13.564;2022-08-01T03:29:03;4.72;;;3.17;;
23472;SDS011;11909;52.516;13.564;2022-08-01T03:31:32;5.78;;;3.38;;
23472;SDS011;11909;52.516;13.564;2022-08-01T03:34:01;4.30;;;3.33;;
23472;SDS011;11909;52.516;13.564;2022-08-01T03:36:28;8.10;;;3.22;;
23472;SDS011;11909;52.516;13.564;2022-08-01T03:38:57;4.15;;;3.00;;
23472;SDS011;11909;52.516;13.564;2022-08-01T03:41:28;6.03;;;3.25;;
23472;SDS011;11909;52.516;13.564;2022-08-01T03:44:00;5.50;;;3.00;;
23472;SDS011;11909;52.516;13.564;2022-08-01T03:46:32;5.10;;;3.53;;
23472;SDS011;11909;52.516;13.564;2022-08-01T03:49:03;4.30;;;3.45;;
23472;SDS011;11909;52.516;13.564;2022-08-01T03:51:34;5.40;;;3.50;;
23472;SDS011;11909;52.516;13.564;2022-08-01T03:54:03;4.95;;;3.70;;
23472;SDS011;11909;52.516;13.564;2022-08-01T03:56:32;5.00;;;3.60;;
23472;SDS011;11909;52.516;13.564;2022-08-01T03:59:00;6.10;;;3.53;;
23472;SDS011;11909;52.516;13.564;2022-08-01T04:01:29;6.50;;;3.75;;
23472;SDS011;11909;52.516;13.564;2022-08-01T04:03:58;5.20;;;3.70;;
23472;SDS011;11909;52.516;13.564;2022-08-01T04:06:26;4.22;;;3.70;;
23472;SDS011;11909;52.516;13.564;2022-08-01T04:08:53;5.20;;;4.10;;
23472;SDS011;11909;52.516;13.564;2022-08-01T04:11:23;6.13;;;3.90;;
23472;SDS011;11909;52.516;13.564;2022-08-01T04:13:53;4.30;;;3.58;;
23472;SDS011;11909;52.516;13.564;2022-08-01T04:16:21;6.70;;;3.83;;
23472;SDS011;11909;52.516;13.564;2022-08-01T04:18:48;3.92;;;3.50;;
23472;SDS011;11909;52.516;13.564;2022-08-01T04:21:14;5.45;;;4.00;;
23472;SDS011;11909;52.516;13.564;2022-08-01T04:23:46;6.20;;;4.65;;
23472;SDS011;11909;52.516;13.564;2022-08-01T04:26:14;8.05;;;4.60;;
23472;SDS011;11909;52.516;13.564;2022-08-01T04:28:41;4.80;;;3.80;;
23472;SDS011;11909;52.516;13.564;2022-08-01T04:31:11;7.50;;;4.03;;
23472;SDS011;11909;52.516;13.564;2022-08-01T04:33:40;4.60;;;3.78;;
23472;SDS011;11909;52.516;13.564;2022-08-01T04:36:10;12.00;;;4.47;;
23472;SDS011;11909;52.516;13.564;2022-08-01T04:38:40;4.43;;;4.03;;
23472;SDS011;11909;52.516;13.564;2022-08-01T04:41:09;10.70;;;5.88;;
23472;SDS011;11909;52.516;13.564;2022-08-01T04:43:38;7.55;;;5.05;;
23472;SDS011;11909;52.516;13.564;2022-08-01T04:46:05;7.13;;;5.25;;
23472;SDS011;11909;52.516;13.564;2022-08-01T04:48:34;8.43;;;6.13;;
23472;SDS011;11909;52.516;13.564;2022-08-01T04:51:03;7.63;;;5.72;;
23472;SDS011;11909;52.516;13.564;2022-08-01T04:53:29;9.48;;;5.70;;
23472;SDS011;11909;52.516;13.564;2022-08-01T04:55:57;7.38;;;5.45;;
23472;SDS011;11909;52.516;13.564;2022-08-01T04:58:24;6.45;;;5.22;;
23472;SDS011;11909;52.516;13.564;2022-08-01T05:00:50;7.75;;;5.82;;
23472;SDS011;11909;52.516;13.564;2022-08-01T05:03:17;7.35;;;5.57;;
23472;SDS011;11909;52.516;13.564;2022-08-01T05:05:45;8.80;;;5.75;;
23472;SDS011;11909;52.516;13.564;2022-08-01T05:08:11;10.30;;;7.30;;
23472;SDS011;11909;52.516;13.564;2022-08-01T05:10:38;11.98;;;7.80;;
23472;SDS011;11909;52.516;13.564;2022-08-01T05:13:04;15.52;;;9.77;;
23472;SDS011;11909;52.516;13.564;2022-08-01T05:15:31;14.18;;;8.70;;
23472;SDS011;11909;52.516;13.564;2022-08-01T05:17:58;12.30;;;7.90;;
23472;SDS011;11909;52.516;13.564;2022-08-01T05:20:24;10.88;;;8.65;;
23472;SDS011;11909;52.516;13.564;2022-08-01T05:22:52;12.15;;;9.13;;
23472;SDS011;11909;52.516;13.564;2022-08-01T05:25:18;11.50;;;8.50;;
23472;SDS011;11909;52.516;13.564;2022-08-01T05:27:45;10.82;;;8.18;;
23472;SDS011;11909;52.516;13.564;2022-08-01T05:30:12;9.80;;;7.88;;
23472;SDS011;11909;52.516;13.564;2022-08-01T05:32:38;10.88;;;7.90;;
23472;SDS011;11909;52.516;13.564;2022-08-01T05:35:06;15.13;;;10.10;;
23472;SDS011;11909;52.516;13.564;2022-08-01T05:37:33;15.65;;;10.10;;
23472;SDS011;11909;52.516;13.564;2022-08-01T05:40:02;11.52;;;7.85;;
23472;SDS011;11909;52.516;13.564;2022-08-01T05:42:29;12.40;;;8.23;;
23472;SDS011;11909;52.516;13.564;2022-08-01T05:44:56;10.73;;;8.00;;
23472;SDS011;11909;52.516;13.564;2022-08-01T05:47:22;10.55;;;8.30;;
23472;SDS011;11909;52.516;13.564;2022-08-01T05:49:49;11.35;;;8.77;;
23472;SDS011;11909;52.516;13.564;2022-08-01T05:52:15;8.57;;;7.10;;
23472;SDS011;11909;52.516;13.564;2022-08-01T05:54:42;8.15;;;7.22;;
23472;SDS011;11909;52.516;13.564;2022-08-01T05:57:09;7.75;;;6.95;;
23472;SDS011;11909;52.516;13.564;2022-08-01T05:59:36;8.95;;;6.55;;
23472;SDS011;11909;52.516;13.564;2022-08-01T06:02:02;12.25;;;7.13;;
23472;SDS011;11909;52.516;13.564;2022-08-01T06:04:29;6.88;;;5.72;;
23472;SDS011;11909;52.516;13.564;2022-08-01T06:06:55;6.30;;;5.07;;
23472;SDS011;11909;52.516;13.564;2022-08-01T06:09:22;9.15;;;5.90;;
23472;SDS011;11909;52.516;13.564;2022-08-01T06:11:48;5.18;;;4.68;;
23472;SDS011;11909;52.516;13.564;2022-08-01T06:14:16;5.32;;;4.70;;
23472;SDS011;11909;52.516;13.564;2022-08-01T06:16:42;6.00;;;5.10;;
23472;SDS011;11909;52.516;13.564;2022-08-01T06:19:09;5.15;;;4.55;;
23472;SDS011;11909;52.516;13.564;2022-08-01T06:21:35;10.45;;;5.38;;
23472;SDS011;11909;52.516;13.564;2022-08-01T06:24:02;5.00;;;4.00;;
23472;SDS011;11909;52.516;13.564;2022-08-01T06:26:29;6.05;;;4.38;;
23472;SDS011;11909;52.516;13.564;2022-08-01T06:28:56;12.20;;;8.55;;
23472;SDS011;11909;52.516;13.564;2022-08-01T06:31:24;5.07;;;4.57;;
23472;SDS011;11909;52.516;13.564;2022-08-01T06:33:50;4.97;;;4.28;;
23472;SDS011;11909;52.516;13.564;2022-08-01T06:36:16;5.63;;;4.00;;
23472;SDS011;11909;52.516;13.564;2022-08-01T06:38:43;6.95;;;3.83;;
23472;SDS011;11909;52.516;13.564;2022-08-01T06:41:09;4.80;;;3.55;;
23472;SDS011;11909;52.516;13.564;2022-08-01T06:43:36;4.88;;;4.03;;
23472;SDS011;11909;52.516;13.564;2022-08-01T06:46:02;4.57;;;3.97;;
23472;SDS011;11909;52.516;13.564;2022-08-01T06:48:31;6.07;;;3.55;;
23472;SDS011;11909;52.516;13.564;2022-08-01T06:50:57;3.63;;;3.13;;
23472;SDS011;11909;52.516;13.564;2022-08-01T06:53:38;3.40;;;3.10;;
23472;SDS011;11909;52.516;13.564;2022-08-01T06:56:05;4.35;;;3.22;;
23472;SDS011;11909;52.516;13.564;2022-08-01T06:58:33;2.95;;;2.72;;
23472;SDS011;11909;52.516;13.564;2022-08-01T07:01:00;3.92;;;3.40;;
23472;SDS011;11909;52.516;13.564;2022-08-01T07:03:26;3.80;;;3.00;;
23472;SDS011;11909;52.516;13.564;2022-08-01T07:05:54;5.47;;;3.35;;
23472;SDS011;11909;52.516;13.564;2022-08-01T07:08:21;2.90;;;2.70;;
23472;SDS011;11909;52.516;13.564;2022-08-01T07:10:47;3.60;;;3.30;;
23472;SDS011;11909;52.516;13.564;2022-08-01T07:13:14;4.03;;;3.45;;
23472;SDS011;11909;52.516;13.564;2022-08-01T07:15:45;3.05;;;2.83;;
23472;SDS011;11909;52.516;13.564;2022-08-01T07:18:11;4.47;;;3.03;;
23472;SDS011;11909;52.516;13.564;2022-08-01T07:20:38;3.42;;;2.70;;
23472;SDS011;11909;52.516;13.564;2022-08-01T07:23:06;3.22;;;2.92;;
23472;SDS011;11909;52.516;13.564;2022-08-01T07:25:32;3.03;;;2.70;;
23472;SDS011;11909;52.516;13.564;2022-08-01T07:27:59;4.05;;;2.75;;
23472;SDS011;11909;52.516;13.564;2022-08-01T07:30:25;3.47;;;2.88;;
23472;SDS011;11909;52.516;13.564;2022-08-01T07:32:52;2.70;;;2.30;;
23472;SDS011;11909;52.516;13.564;2022-08-01T07:35:18;3.17;;;2.88;;
23472;SDS011;11909;52.516;13.564;2022-08-01T07:37:45;4.28;;;2.17;;
23472;SDS011;11909;52.516;13.564;2022-08-01T07:40:13;4.15;;;2.55;;
23472;SDS011;11909;52.516;13.564;2022-08-01T07:42:40;4.25;;;2.67;;
23472;SDS011;11909;52.516;13.564;2022-08-01T07:45:08;6.40;;;2.80;;
23472;SDS011;11909;52.516;13.564;2022-08-01T07:47:35;3.45;;;2.60;;
23472;SDS011;11909;52.516;13.564;2022-08-01T07:50:02;2.58;;;2.30;;
23472;SDS011;11909;52.516;13.564;2022-08-01T07:52:29;2.95;;;2.58;;
23472;SDS011;11909;52.516;13.564;2022-08-01T07:54:56;3.00;;;2.60;;
23472;SDS011;11909;52.516;13.564;2022-08-01T07:57:25;4.45;;;2.53;;
23472;SDS011;11909;52.516;13.564;2022-08-01T07:59:51;4.78;;;2.45;;
23472;SDS011;11909;52.516;13.564;2022-08-01T08:02:17;2.70;;;2.50;;
23472;SDS011;11909;52.516;13.564;2022-08-01T08:04:44;2.72;;;2.50;;
23472;SDS011;11909;52.516;13.564;2022-08-01T08:07:10;3.22;;;2.65;;
23472;SDS011;11909;52.516;13.564;2022-08-01T08:09:37;2.80;;;2.60;;
23472;SDS011;11909;52.516;13.564;2022-08-01T08:12:04;2.65;;;2.40;;
23472;SDS011;11909;52.516;13.564;2022-08-01T08:14:33;3.30;;;2.70;;
23472;SDS011;11909;52.516;13.564;2022-08-01T08:16:59;4.03;;;2.72;;
23472;SDS011;11909;52.516;13.564;2022-08-01T08:19:26;4.28;;;2.50;;
23472;SDS011;11909;52.516;13.564;2022-08-01T08:21:52;4.03;;;2.72;;
23472;SDS011;11909;52.516;13.564;2022-08-01T08:24:19;3.35;;;2.45;;
23472;SDS011;11909;52.516;13.564;2022-08-01T08:26:45;3.40;;;3.10;;
23472;SDS011;11909;52.516;13.564;2022-08-01T08:29:12;3.38;;;3.08;;
23472;SDS011;11909;52.516;13.564;2022-08-01T08:31:40;4.85;;;3.20;;
23472;SDS011;11909;52.516;13.564;2022-08-01T08:34:07;3.35;;;3.05;;
23472;SDS011;11909;52.516;13.564;2022-08-01T08:36:33;3.80;;;2.92;;
23472;SDS011;11909;52.516;13.564;2022-08-01T08:39:00;3.67;;;3.10;;
23472;SDS011;11909;52.516;13.564;2022-08-01T08:41:28;3.60;;;3.00;;
23472;SDS011;11909;52.516;13.564;2022-08-01T08:43:55;3.08;;;2.67;;
23472;SDS011;11909;52.516;13.564;2022-08-01T08:46:23;4.75;;;3.00;;
23472;SDS011;11909;52.516;13.564;2022-08-01T08:48:52;3.15;;;2.45;;
23472;SDS011;11909;52.516;13.564;2022-08-01T08:51:19;2.42;;;2.10;;
23472;SDS011;11909;52.516;13.564;2022-08-01T08:53:46;2.50;;;2.30;;
23472;SDS011;11909;52.516;13.564;2022-08-01T08:56:13;3.10;;;2.00;;
23472;SDS011;11909;52.516;13.564;2022-08-01T08:58:41;2.53;;;2.20;;
23472;SDS011;11909;52.516;13.564;2022-08-01T09:01:11;2.60;;;2.03;;
23472;SDS011;11909;52.516;13.564;2022-08-01T09:03:38;2.75;;;1.90;;
23472;SDS011;11909;52.516;13.564;2022-08-01T09:06:06;1.92;;;1.73;;
23472;SDS011;11909;52.516;13.564;2022-08-01T09:08:32;1.95;;;1.80;;
23472;SDS011;11909;52.516;13.564;2022-08-01T09:10:59;3.10;;;1.65;;
23472;SDS011;11909;52.516;13.564;2022-08-01T09:13:25;2.70;;;1.90;;
23472;SDS011;11909;52.516;13.564;2022-08-01T09:15:53;1.85;;;1.70;;
23472;SDS011;11909;52.516;13.564;2022-08-01T09:18:27;1.73;;;1.63;;
23472;SDS011;11909;52.516;13.564;2022-08-01T09:21:09;2.90;;;1.65;;
23472;SDS011;11909;52.516;13.564;2022-08-01T09:23:40;1.77;;;1.38;;
23472;SDS011;11909;52.516;13.564;2022-08-01T09:26:08;3.83;;;1.50;;
23472;SDS011;11909;52.516;13.564;2022-08-01T09:28:35;2.40;;;1.50;;
23472;SDS011;11909;52.516;13.564;2022-08-01T09:31:07;4.10;;;1.35;;
23472;SDS011;11909;52.516;13.564;2022-08-01T09:33:51;1.23;;;1.10;;
23472;SDS011;11909;52.516;13.564;2022-08-01T09:36:21;3.42;;;1.10;;
23472;SDS011;11909;52.516;13.564;2022-08-01T09:38:48;1.17;;;0.90;;
23472;SDS011;11909;52.516;13.564;2022-08-01T09:41:15;1.65;;;0.88;;
23472;SDS011;11909;52.516;13.564;2022-08-01T09:43:47;1.02;;;0.80;;
23472;SDS011;11909;52.516;13.564;2022-08-01T09:46:16;0.93;;;0.93;;
23472;SDS011;11909;52.516;13.564;2022-08-01T09:48:54;1.25;;;1.10;;
23472;SDS011;11909;52.516;13.564;2022-08-01T09:51:33;0.95;;;0.90;;
23472;SDS011;11909;52.516;13.564;2022-08-01T09:54:01;0.90;;;0.90;;
23472;SDS011;11909;52.516;13.564;2022-08-01T09:56:36;1.70;;;1.00;;
23472;SDS011;11909;52.516;13.564;2022-08-01T09:59:03;1.83;;;1.30;;
23472;SDS011;11909;52.516;13.564;2022-08-01T10:01:41;5.15;;;1.73;;
23472;SDS011;11909;52.516;13.564;2022-08-01T10:04:09;2.33;;;1.33;;
23472;SDS011;11909;52.516;13.564;2022-08-01T10:06:39;1.20;;;1.10;;
23472;SDS011;11909;52.516;13.564;2022-08-01T10:09:07;1.42;;;1.20;;
23472;SDS011;11909;52.516;13.564;2022-08-01T10:11:34;2.00;;;1.50;;
23472;SDS011;11909;52.516;13.564;2022-08-01T10:14:04;1.67;;;1.58;;
23472;SDS011;11909;52.516;13.564;2022-08-01T10:16:31;3.17;;;1.60;;
23472;SDS011;11909;52.516;13.564;2022-08-01T10:18:59;2.85;;;1.80;;
23472;SDS011;11909;52.516;13.564;2022-08-01T10:21:27;2.08;;;1.60;;
23472;SDS011;11909;52.516;13.564;2022-08-01T10:23:56;2.72;;;1.80;;
23472;SDS011;11909;52.516;13.564;2022-08-01T10:26:25;1.70;;;1.60;;
23472;SDS011;11909;52.516;13.564;2022-08-01T10:28:52;3.92;;;1.83;;
23472;SDS011;11909;52.516;13.564;2022-08-01T10:31:20;1.85;;;1.60;;
23472;SDS011;11909;52.516;13.564;2022-08-01T10:33:46;2.08;;;1.50;;
23472;SDS011;11909;52.516;13.564;2022-08-01T10:36:14;4.97;;;1.50;;
23472;SDS011;11909;52.516;13.564;2022-08-01T10:38:45;3.13;;;1.55;;
23472;SDS011;11909;52.516;13.564;2022-08-01T10:41:13;2.83;;;1.55;;
23472;SDS011;11909;52.516;13.564;2022-08-01T10:43:41;3.20;;;1.65;;
23472;SDS011;11909;52.516;13.564;2022-08-01T10:46:08;1.75;;;1.65;;
23472;SDS011;11909;52.516;13.564;2022-08-01T10:48:39;1.80;;;1.70;;
23472;SDS011;11909;52.516;13.564;2022-08-01T10:51:11;2.55;;;1.45;;
23472;SDS011;11909;52.516;13.564;2022-08-01T10:53:38;1.83;;;1.67;;
23472;SDS011;11909;52.516;13.564;2022-08-01T10:56:13;2.50;;;1.77;;
23472;SDS011;11909;52.516;13.564;2022-08-01T10:58:42;2.70;;;2.05;;
23472;SDS011;11909;52.516;13.564;2022-08-01T11:01:13;2.05;;;1.85;;
23472;SDS011;11909;52.516;13.564;2022-08-01T11:03:55;2.13;;;1.65;;
23472;SDS011;11909;52.516;13.564;2022-08-01T11:06:24;2.80;;;1.63;;
23472;SDS011;11909;52.516;13.564;2022-08-01T11:08:54;1.80;;;1.42;;
23472;SDS011;11909;52.516;13.564;2022-08-01T11:11:25;1.50;;;1.40;;
23472;SDS011;11909;52.516;13.564;2022-08-01T11:14:01;1.80;;;1.60;;
23472;SDS011;11909;52.516;13.564;2022-08-01T11:16:32;2.08;;;1.50;;
23472;SDS011;11909;52.516;13.564;2022-08-01T11:18:59;1.50;;;1.40;;
23472;SDS011;11909;52.516;13.564;2022-08-01T11:24:53;1.27;;;1.17;;
23472;SDS011;11909;52.516;13.564;2022-08-01T11:27:26;2.33;;;1.10;;
23472;SDS011;11909;52.516;13.564;2022-08-01T11:32:52;1.95;;;1.20;;
23472;SDS011;11909;52.516;13.564;2022-08-01T11:35:20;1.60;;;1.35;;
23472;SDS011;11909;52.516;13.564;2022-08-01T11:37:48;3.65;;;1.00;;
23472;SDS011;11909;52.516;13.564;2022-08-01T11:40:18;2.13;;;1.25;;
23472;SDS011;11909;52.516;13.564;2022-08-01T11:42:47;2.25;;;1.00;;
23472;SDS011;11909;52.516;13.564;2022-08-01T11:45:15;2.60;;;0.90;;
23472;SDS011;11909;52.516;13.564;2022-08-01T11:47:45;1.35;;;0.93;;
23472;SDS011;11909;52.516;13.564;2022-08-01T11:50:31;2.67;;;1.00;;
23472;SDS011;11909;52.516;13.564;2022-08-01T11:52:59;1.33;;;1.00;;
23472;SDS011;11909;52.516;13.564;2022-08-01T11:55:27;4.28;;;1.20;;
23472;SDS011;11909;52.516;13.564;2022-08-01T11:58:03;2.60;;;1.20;;
23472;SDS011;11909;52.516;13.564;2022-08-01T12:00:31;2.00;;;1.23;;
23472;SDS011;11909;52.516;13.564;2022-08-01T12:02:59;1.77;;;1.10;;
23472;SDS011;11909;52.516;13.564;2022-08-01T12:05:27;8.15;;;1.30;;
23472;SDS011;11909;52.516;13.564;2022-08-01T12:07:55;2.40;;;1.38;;
23472;SDS011;11909;52.516;13.564;2022-08-01T12:10:23;1.70;;;1.20;;
23472;SDS011;11909;52.516;13.564;2022-08-01T12:12:51;1.83;;;1.20;;
23472;SDS011;11909;52.516;13.564;2022-08-01T12:15:20;1.10;;;1.00;;
23472;SDS011;11909;52.516;13.564;2022-08-01T12:17:48;4.30;;;1.30;;
23472;SDS011;11909;52.516;13.564;2022-08-01T12:20:19;1.27;;;1.17;;
23472;SDS011;11909;52.516;13.564;2022-08-01T12:22:46;1.42;;;1.33;;
23472;SDS011;11909;52.516;13.564;2022-08-01T12:25:13;4.60;;;1.20;;
23472;SDS011;11909;52.516;13.564;2022-08-01T12:27:42;1.20;;;1.10;;
23472;SDS011;11909;52.516;13.564;2022-08-01T12:30:10;3.05;;;1.20;;
23472;SDS011;11909;52.516;13.564;2022-08-01T12:32:41;2.38;;;0.90;;
23472;SDS011;11909;52.516;13.564;2022-08-01T12:37:44;1.05;;;1.02;;
23472;SDS011;11909;52.516;13.564;2022-08-01T12:40:13;3.25;;;1.20;;
23472;SDS011;11909;52.516;13.564;2022-08-01T12:42:42;1.67;;;1.33;;
23472;SDS011;11909;52.516;13.564;2022-08-01T12:45:09;2.03;;;1.08;;
23472;SDS011;11909;52.516;13.564;2022-08-01T12:47:38;1.75;;;1.00;;
23472;SDS011;11909;52.516;13.564;2022-08-01T12:50:08;2.45;;;1.15;;
23472;SDS011;11909;52.516;13.564;2022-08-01T12:52:38;0.98;;;0.98;;
23472;SDS011;11909;52.516;13.564;2022-08-01T12:55:06;1.48;;;1.05;;
23472;SDS011;11909;52.516;13.564;2022-08-01T12:57:35;1.43;;;1.20;;
23472;SDS011;11909;52.516;13.564;2022-08-01T13:02:59;1.20;;;1.10;;
23472;SDS011;11909;52.516;13.564;2022-08-01T13:05:31;1.25;;;1.15;;
23472;SDS011;11909;52.516;13.564;2022-08-01T13:08:08;1.15;;;1.10;;
23472;SDS011;11909;52.516;13.564;2022-08-01T13:10:36;2.35;;;1.30;;
23472;SDS011;11909;52.516;13.564;2022-08-01T13:13:02;4.47;;;1.27;;
23472;SDS011;11909;52.516;13.564;2022-08-01T13:15:29;1.75;;;1.02;;
23472;SDS011;11909;52.516;13.564;2022-08-01T13:18:00;1.77;;;1.15;;
23472;SDS011;11909;52.516;13.564;2022-08-01T13:20:30;1.77;;;1.50;;
23472;SDS011;11909;52.516;13.564;2022-08-01T13:23:09;1.08;;;1.08;;
23472;SDS011;11909;52.516;13.564;2022-08-01T13:25:46;1.40;;;1.30;;
23472;SDS011;11909;52.516;13.564;2022-08-01T13:28:13;1.15;;;1.05;;
23472;SDS011;11909;52.516;13.564;2022-08-01T13:30:50;1.48;;;1.10;;
23472;SDS011;11909;52.516;13.564;2022-08-01T13:33:17;4.80;;;1.38;;
23472;SDS011;11909;52.516;13.564;2022-08-01T13:35:45;9.68;;;1.83;;
23472;SDS011;11909;52.516;13.564;2022-08-01T13:38:12;5.70;;;1.77;;
23472;SDS011;11909;52.516;13.564;2022-08-01T13:40:39;5.63;;;1.83;;
23472;SDS011;11909;52.516;13.564;2022-08-01T13:43:05;3.17;;;1.48;;
23472;SDS011;11909;52.516;13.564;2022-08-01T13:45:32;6.43;;;2.20;;
23472;SDS011;11909;52.516;13.564;2022-08-01T13:47:58;4.25;;;1.90;;
23472;SDS011;11909;52.516;13.564;2022-08-01T13:50:25;3.35;;;1.80;;
23472;SDS011;11909;52.516;13.564;2022-08-01T13:52:52;2.05;;;1.70;;
23472;SDS011;11909;52.516;13.564;2022-08-01T13:55:19;3.92;;;1.92;;
23472;SDS011;11909;52.516;13.564;2022-08-01T13:57:45;4.68;;;2.38;;
23472;SDS011;11909;52.516;13.564;2022-08-01T14:00:12;4.85;;;2.13;;
23472;SDS011;11909;52.516;13.564;2022-08-01T14:02:39;1.92;;;1.63;;
23472;SDS011;11909;52.516;13.564;2022-08-01T14:05:06;3.40;;;1.98;;
23472;SDS011;11909;52.516;13.564;2022-08-01T14:07:33;2.25;;;2.05;;
23472;SDS011;11909;52.516;13.564;2022-08-01T14:10:00;2.30;;;1.60;;
23472;SDS011;11909;52.516;13.564;2022-08-01T14:12:27;3.03;;;1.98;;
23472;SDS011;11909;52.516;13.564;2022-08-01T14:14:53;2.35;;;1.85;;
23472;SDS011;11909;52.516;13.564;2022-08-01T14:17:21;3.92;;;1.92;;
23472;SDS011;11909;52.516;13.564;2022-08-01T14:19:47;2.10;;;1.60;;
23472;SDS011;11909;52.516;13.564;2022-08-01T14:22:14;4.47;;;2.10;;
23472;SDS011;11909;52.516;13.564;2022-08-01T14:24:40;3.75;;;1.70;;
23472;SDS011;11909;52.516;13.564;2022-08-01T14:27:08;3.47;;;1.98;;
23472;SDS011;11909;52.516;13.564;2022-08-01T14:29:34;2.33;;;1.70;;
23472;SDS011;11909;52.516;13.564;2022-08-01T14:32:01;1.70;;;1.60;;
23472;SDS011;11909;52.516;13.564;2022-08-01T14:34:27;1.65;;;1.42;;
23472;SDS011;11909;52.516;13.564;2022-08-01T14:36:54;2.00;;;1.50;;
23472;SDS011;11909;52.516;13.564;2022-08-01T14:39:20;2.85;;;1.50;;
23472;SDS011;11909;52.516;13.564;2022-08-01T14:41:47;1.73;;;1.63;;
23472;SDS011;11909;52.516;13.564;2022-08-01T14:44:15;1.85;;;1.50;;
23472;SDS011;11909;52.516;13.564;2022-08-01T14:46:42;2.55;;;1.67;;
23472;SDS011;11909;52.516;13.564;2022-08-01T14:49:09;1.58;;;1.48;;
23472;SDS011;11909;52.516;13.564;2022-08-01T14:51:35;2.95;;;1.40;;
23472;SDS011;11909;52.516;13.564;2022-08-01T14:54:03;3.35;;;1.20;;
23472;SDS011;11909;52.516;13.564;2022-08-01T14:56:30;1.70;;;1.17;;
23472;SDS011;11909;52.516;13.564;2022-08-01T14:58:56;1.52;;;1.20;;